sensor_id;sensor_type;location;lat;lon;timestamp;P1;durP1;ratioP1;P2;durP2;ratioP2
10074;SDS011;5076;42.680;23.288;2022-08-19T00:01:49;6.43;;;3.80;;
10074;SDS011;5076;42.680;23.288;2022-08-19T00:04:18;5.10;;;3.67;;
10074;SDS011;5076;42.680;23.288;2022-08-19T00:06:46;5.10;;;3.40;;
10074;SDS011;5076;42.680;23.288;2022-08-19T00:09:15;6.53;;;3.80;;
10074;SDS011;5076;42.680;23.288;2022-08-19T00:11:42;4.40;;;3.63;;
10074;SDS011;5076;42.680;23.288;2022-08-19T00:14:09;5.53;;;3.63;;
10074;SDS011;5076;42.680;23.288;2022-08-19T00:16:36;4.97;;;3.63;;
10074;SDS011;5076;42.680;23.288;2022-08-19T00:19:04;4.77;;;3.43;;
10074;SDS011;5076;42.680;23.288;2022-08-19T00:21:32;5.13;;;4.13;;
10074;SDS011;5076;42.680;23.288;2022-08-19T00:24:05;6.27;;;4.63;;
10074;SDS011;5076;42.680;23.288;2022-08-19T00:26:31;6.00;;;4.20;;
10074;SDS011;5076;42.680;23.288;2022-08-19T00:28:58;5.50;;;4.43;;
10074;SDS011;5076;42.680;23.288;2022-08-19T00:31:25;5.13;;;3.90;;
10074;SDS011;5076;42.680;23.288;2022-08-19T00:33:53;4.67;;;3.80;;
10074;SDS011;5076;42.680;23.288;2022-08-19T00:36:19;4.27;;;3.87;;
10074;SDS011;5076;42.680;23.288;2022-08-19T00:38:47;4.67;;;3.67;;
10074;SDS011;5076;42.680;23.288;2022-08-19T00:41:18;4.80;;;3.70;;
10074;SDS011;5076;42.680;23.288;2022-08-19T00:43:55;4.93;;;3.57;;
10074;SDS011;5076;42.680;23.288;2022-08-19T00:46:22;4.17;;;3.77;;
10074;SDS011;5076;42.680;23.288;2022-08-19T00:48:49;4.87;;;3.57;;
10074;SDS011;5076;42.680;23.288;2022-08-19T00:51:15;3.70;;;3.40;;
10074;SDS011;5076;42.680;23.288;2022-08-19T00:53:42;3.70;;;3.40;;
10074;SDS011;5076;42.680;23.288;2022-08-19T00:56:10;4.03;;;3.70;;
10074;SDS011;5076;42.680;23.288;2022-08-19T00:58:37;3.70;;;3.40;;
10074;SDS011;5076;42.680;23.288;2022-08-19T01:01:05;4.10;;;3.67;;
10074;SDS011;5076;42.680;23.288;2022-08-19T01:03:33;4.37;;;3.97;;
10074;SDS011;5076;42.680;23.288;2022-08-19T01:05:59;3.53;;;3.23;;
10074;SDS011;5076;42.680;23.288;2022-08-19T01:08:26;3.60;;;3.30;;
10074;SDS011;5076;42.680;23.288;2022-08-19T01:10:53;3.97;;;3.67;;
10074;SDS011;5076;42.680;23.288;2022-08-19T01:13:22;4.67;;;4.20;;
10074;SDS011;5076;42.680;23.288;2022-08-19T01:15:51;3.93;;;3.50;;
10074;SDS011;5076;42.680;23.288;2022-08-19T01:18:18;7.13;;;5.50;;
10074;SDS011;5076;42.680;23.288;2022-08-19T01:20:45;3.80;;;3.50;;
10074;SDS011;5076;42.680;23.288;2022-08-19T01:23:13;4.07;;;3.60;;
10074;SDS011;5076;42.680;23.288;2022-08-19T01:25:41;6.03;;;4.00;;
10074;SDS011;5076;42.680;23.288;2022-08-19T01:28:12;4.57;;;4.10;;
10074;SDS011;5076;42.680;23.288;2022-08-19T01:30:40;5.33;;;4.50;;
10074;SDS011;5076;42.680;23.288;2022-08-19T01:33:07;6.13;;;4.37;;
10074;SDS011;5076;42.680;23.288;2022-08-19T01:35:34;4.80;;;4.33;;
10074;SDS011;5076;42.680;23.288;2022-08-19T01:38:02;4.17;;;3.77;;
10074;SDS011;5076;42.680;23.288;2022-08-19T01:40:35;4.10;;;3.70;;
10074;SDS011;5076;42.680;23.288;2022-08-19T01:43:02;4.60;;;4.20;;
10074;SDS011;5076;42.680;23.288;2022-08-19T01:45:30;6.70;;;4.57;;
10074;SDS011;5076;42.680;23.288;2022-08-19T01:47:56;4.50;;;3.97;;
10074;SDS011;5076;42.680;23.288;2022-08-19T01:50:24;3.97;;;3.57;;
10074;SDS011;5076;42.680;23.288;2022-08-19T01:52:51;5.83;;;3.70;;
10074;SDS011;5076;42.680;23.288;2022-08-19T01:55:18;7.30;;;4.30;;
10074;SDS011;5076;42.680;23.288;2022-08-19T01:57:47;4.87;;;4.47;;
10074;SDS011;5076;42.680;23.288;2022-08-19T02:00:15;6.83;;;4.50;;
10074;SDS011;5076;42.680;23.288;2022-08-19T02:02:42;5.13;;;4.60;;
10074;SDS011;5076;42.680;23.288;2022-08-19T02:05:09;4.60;;;4.20;;
10074;SDS011;5076;42.680;23.288;2022-08-19T02:07:36;5.10;;;4.40;;
10074;SDS011;5076;42.680;23.288;2022-08-19T02:10:03;5.43;;;4.10;;
10074;SDS011;5076;42.680;23.288;2022-08-19T02:12:30;7.30;;;4.97;;
10074;SDS011;5076;42.680;23.288;2022-08-19T02:14:58;5.80;;;4.50;;
10074;SDS011;5076;42.680;23.288;2022-08-19T02:17:24;4.83;;;4.33;;
10074;SDS011;5076;42.680;23.288;2022-08-19T02:19:51;5.10;;;3.97;;
10074;SDS011;5076;42.680;23.288;2022-08-19T02:22:17;4.63;;;4.00;;
10074;SDS011;5076;42.680;23.288;2022-08-19T02:24:44;4.50;;;4.10;;
10074;SDS011;5076;42.680;23.288;2022-08-19T02:27:11;5.83;;;4.50;;
10074;SDS011;5076;42.680;23.288;2022-08-19T02:29:38;4.80;;;4.37;;
10074;SDS011;5076;42.680;23.288;2022-08-19T02:32:06;5.10;;;4.67;;
10074;SDS011;5076;42.680;23.288;2022-08-19T02:34:33;4.33;;;3.93;;
10074;SDS011;5076;42.680;23.288;2022-08-19T02:36:59;4.43;;;4.03;;
10074;SDS011;5076;42.680;23.288;2022-08-19T02:39:26;4.10;;;3.50;;
10074;SDS011;5076;42.680;23.288;2022-08-19T02:41:52;6.10;;;4.43;;
10074;SDS011;5076;42.680;23.288;2022-08-19T02:44:18;4.33;;;3.93;;
10074;SDS011;5076;42.680;23.288;2022-08-19T02:46:45;4.37;;;3.87;;
10074;SDS011;5076;42.680;23.288;2022-08-19T02:49:14;4.30;;;3.90;;
10074;SDS011;5076;42.680;23.288;2022-08-19T02:51:42;5.93;;;4.47;;
10074;SDS011;5076;42.680;23.288;2022-08-19T02:54:10;6.50;;;4.87;;
10074;SDS011;5076;42.680;23.288;2022-08-19T02:56:38;4.97;;;4.10;;
10074;SDS011;5076;42.680;23.288;2022-08-19T02:59:05;5.47;;;4.27;;
10074;SDS011;5076;42.680;23.288;2022-08-19T03:01:33;4.67;;;4.27;;
10074;SDS011;5076;42.680;23.288;2022-08-19T03:04:01;4.40;;;4.00;;
10074;SDS011;5076;42.680;23.288;2022-08-19T03:06:29;5.10;;;4.60;;
10074;SDS011;5076;42.680;23.288;2022-08-19T03:08:56;5.60;;;4.77;;
10074;SDS011;5076;42.680;23.288;2022-08-19T03:11:23;4.90;;;4.50;;
10074;SDS011;5076;42.680;23.288;2022-08-19T03:13:50;6.13;;;5.10;;
10074;SDS011;5076;42.680;23.288;2022-08-19T03:16:18;5.60;;;5.00;;
10074;SDS011;5076;42.680;23.288;2022-08-19T03:18:45;6.30;;;4.73;;
10074;SDS011;5076;42.680;23.288;2022-08-19T03:21:14;7.30;;;5.00;;
10074;SDS011;5076;42.680;23.288;2022-08-19T03:23:42;7.00;;;4.97;;
10074;SDS011;5076;42.680;23.288;2022-08-19T03:26:09;5.47;;;4.97;;
10074;SDS011;5076;42.680;23.288;2022-08-19T03:28:35;6.57;;;4.63;;
10074;SDS011;5076;42.680;23.288;2022-08-19T03:31:08;9.53;;;5.00;;
10074;SDS011;5076;42.680;23.288;2022-08-19T03:33:35;4.93;;;4.43;;
10074;SDS011;5076;42.680;23.288;2022-08-19T03:36:05;5.13;;;4.73;;
10074;SDS011;5076;42.680;23.288;2022-08-19T03:38:33;7.90;;;5.10;;
10074;SDS011;5076;42.680;23.288;2022-08-19T03:41:06;8.37;;;5.53;;
10074;SDS011;5076;42.680;23.288;2022-08-19T03:43:34;9.13;;;5.40;;
10074;SDS011;5076;42.680;23.288;2022-08-19T03:46:01;9.07;;;5.37;;
10074;SDS011;5076;42.680;23.288;2022-08-19T03:48:29;6.57;;;5.60;;
10074;SDS011;5076;42.680;23.288;2022-08-19T03:50:56;6.33;;;5.73;;
10074;SDS011;5076;42.680;23.288;2022-08-19T03:53:24;7.17;;;5.57;;
10074;SDS011;5076;42.680;23.288;2022-08-19T03:55:51;10.20;;;7.97;;
10074;SDS011;5076;42.680;23.288;2022-08-19T03:58:19;6.40;;;5.80;;
10074;SDS011;5076;42.680;23.288;2022-08-19T04:00:46;17.83;;;13.63;;
10074;SDS011;5076;42.680;23.288;2022-08-19T04:03:12;13.60;;;6.73;;
10074;SDS011;5076;42.680;23.288;2022-08-19T04:05:39;11.47;;;6.60;;
10074;SDS011;5076;42.680;23.288;2022-08-19T04:08:05;9.00;;;6.20;;
10074;SDS011;5076;42.680;23.288;2022-08-19T04:10:35;21.97;;;7.90;;
10074;SDS011;5076;42.680;23.288;2022-08-19T04:13:01;11.77;;;5.80;;
10074;SDS011;5076;42.680;23.288;2022-08-19T04:15:30;5.93;;;5.43;;
10074;SDS011;5076;42.680;23.288;2022-08-19T04:18:00;10.20;;;6.17;;
10074;SDS011;5076;42.680;23.288;2022-08-19T04:20:27;13.33;;;6.47;;
10074;SDS011;5076;42.680;23.288;2022-08-19T04:22:54;11.50;;;6.37;;
10074;SDS011;5076;42.680;23.288;2022-08-19T04:25:20;10.17;;;6.00;;
10074;SDS011;5076;42.680;23.288;2022-08-19T04:27:47;10.40;;;6.17;;
10074;SDS011;5076;42.680;23.288;2022-08-19T04:30:14;14.77;;;5.87;;
10074;SDS011;5076;42.680;23.288;2022-08-19T04:32:44;9.77;;;6.60;;
10074;SDS011;5076;42.680;23.288;2022-08-19T04:35:10;12.07;;;6.20;;
10074;SDS011;5076;42.680;23.288;2022-08-19T04:37:37;11.30;;;6.60;;
10074;SDS011;5076;42.680;23.288;2022-08-19T04:40:05;12.83;;;6.20;;
10074;SDS011;5076;42.680;23.288;2022-08-19T04:42:49;6.07;;;5.47;;
10074;SDS011;5076;42.680;23.288;2022-08-19T04:45:15;8.23;;;6.00;;
10074;SDS011;5076;42.680;23.288;2022-08-19T04:47:43;9.50;;;6.90;;
10074;SDS011;5076;42.680;23.288;2022-08-19T04:50:10;8.17;;;5.93;;
10074;SDS011;5076;42.680;23.288;2022-08-19T04:52:37;6.37;;;5.70;;
10074;SDS011;5076;42.680;23.288;2022-08-19T04:55:07;6.70;;;6.10;;
10074;SDS011;5076;42.680;23.288;2022-08-19T04:57:34;6.47;;;5.70;;
10074;SDS011;5076;42.680;23.288;2022-08-19T05:00:06;7.53;;;5.87;;
10074;SDS011;5076;42.680;23.288;2022-08-19T05:02:32;8.20;;;6.43;;
10074;SDS011;5076;42.680;23.288;2022-08-19T05:05:00;13.00;;;6.77;;
10074;SDS011;5076;42.680;23.288;2022-08-19T05:07:27;6.83;;;6.13;;
10074;SDS011;5076;42.680;23.288;2022-08-19T05:09:54;7.97;;;6.30;;
10074;SDS011;5076;42.680;23.288;2022-08-19T05:12:21;13.03;;;7.20;;
10074;SDS011;5076;42.680;23.288;2022-08-19T05:14:47;9.43;;;7.07;;
10074;SDS011;5076;42.680;23.288;2022-08-19T05:17:14;11.70;;;6.83;;
10074;SDS011;5076;42.680;23.288;2022-08-19T05:19:41;8.87;;;6.77;;
10074;SDS011;5076;42.680;23.288;2022-08-19T05:22:26;10.40;;;7.10;;
10074;SDS011;5076;42.680;23.288;2022-08-19T05:25:01;12.10;;;6.80;;
10074;SDS011;5076;42.680;23.288;2022-08-19T05:27:28;8.80;;;6.33;;
10074;SDS011;5076;42.680;23.288;2022-08-19T05:29:55;6.73;;;6.13;;
10074;SDS011;5076;42.680;23.288;2022-08-19T05:32:21;14.97;;;7.00;;
10074;SDS011;5076;42.680;23.288;2022-08-19T05:34:48;16.70;;;6.70;;
10074;SDS011;5076;42.680;23.288;2022-08-19T05:37:15;11.17;;;6.83;;
10074;SDS011;5076;42.680;23.288;2022-08-19T05:39:43;8.77;;;6.47;;
10074;SDS011;5076;42.680;23.288;2022-08-19T05:42:11;7.20;;;6.50;;
10074;SDS011;5076;42.680;23.288;2022-08-19T05:44:39;7.23;;;6.57;;
10074;SDS011;5076;42.680;23.288;2022-08-19T05:47:09;8.73;;;6.90;;
10074;SDS011;5076;42.680;23.288;2022-08-19T05:49:36;11.27;;;7.50;;
10074;SDS011;5076;42.680;23.288;2022-08-19T05:52:03;9.67;;;7.33;;
10074;SDS011;5076;42.680;23.288;2022-08-19T05:54:30;8.83;;;7.60;;
10074;SDS011;5076;42.680;23.288;2022-08-19T05:57:00;16.20;;;8.53;;
10074;SDS011;5076;42.680;23.288;2022-08-19T05:59:27;10.07;;;7.57;;
10074;SDS011;5076;42.680;23.288;2022-08-19T06:01:53;8.53;;;7.47;;
10074;SDS011;5076;42.680;23.288;2022-08-19T06:04:22;12.30;;;8.27;;
10074;SDS011;5076;42.680;23.288;2022-08-19T06:06:50;11.97;;;7.93;;
10074;SDS011;5076;42.680;23.288;2022-08-19T06:09:18;8.17;;;7.17;;
10074;SDS011;5076;42.680;23.288;2022-08-19T06:11:45;8.70;;;7.80;;
10074;SDS011;5076;42.680;23.288;2022-08-19T06:14:15;8.63;;;7.47;;
10074;SDS011;5076;42.680;23.288;2022-08-19T06:16:42;9.47;;;7.20;;
10074;SDS011;5076;42.680;23.288;2022-08-19T06:19:12;10.50;;;7.60;;
10074;SDS011;5076;42.680;23.288;2022-08-19T06:21:40;8.90;;;7.20;;
10074;SDS011;5076;42.680;23.288;2022-08-19T06:24:08;10.70;;;7.70;;
10074;SDS011;5076;42.680;23.288;2022-08-19T06:26:36;8.67;;;7.67;;
10074;SDS011;5076;42.680;23.288;2022-08-19T06:29:03;8.93;;;7.63;;
10074;SDS011;5076;42.680;23.288;2022-08-19T06:31:32;10.30;;;7.53;;
10074;SDS011;5076;42.680;23.288;2022-08-19T06:34:00;9.17;;;7.33;;
10074;SDS011;5076;42.680;23.288;2022-08-19T06:36:28;12.00;;;7.37;;
10074;SDS011;5076;42.680;23.288;2022-08-19T06:38:57;11.80;;;8.33;;
10074;SDS011;5076;42.680;23.288;2022-08-19T06:41:24;8.90;;;7.80;;
10074;SDS011;5076;42.680;23.288;2022-08-19T06:43:51;8.33;;;7.33;;
10074;SDS011;5076;42.680;23.288;2022-08-19T06:46:18;8.20;;;7.37;;
10074;SDS011;5076;42.680;23.288;2022-08-19T06:48:46;10.00;;;7.97;;
10074;SDS011;5076;42.680;23.288;2022-08-19T06:51:13;11.13;;;7.17;;
10074;SDS011;5076;42.680;23.288;2022-08-19T06:53:43;13.73;;;7.30;;
10074;SDS011;5076;42.680;23.288;2022-08-19T06:56:12;10.40;;;7.00;;
10074;SDS011;5076;42.680;23.288;2022-08-19T06:58:39;9.37;;;6.90;;
10074;SDS011;5076;42.680;23.288;2022-08-19T07:01:06;8.77;;;6.90;;
10074;SDS011;5076;42.680;23.288;2022-08-19T07:03:34;8.77;;;6.97;;
10074;SDS011;5076;42.680;23.288;2022-08-19T07:06:04;8.70;;;6.77;;
10074;SDS011;5076;42.680;23.288;2022-08-19T07:08:31;11.20;;;7.13;;
10074;SDS011;5076;42.680;23.288;2022-08-19T07:10:58;10.00;;;6.43;;
10074;SDS011;5076;42.680;23.288;2022-08-19T07:13:25;7.10;;;6.20;;
10074;SDS011;5076;42.680;23.288;2022-08-19T07:15:52;8.70;;;6.17;;
10074;SDS011;5076;42.680;23.288;2022-08-19T07:18:19;6.63;;;6.00;;
10074;SDS011;5076;42.680;23.288;2022-08-19T07:20:46;17.20;;;7.00;;
10074;SDS011;5076;42.680;23.288;2022-08-19T07:23:15;7.23;;;6.53;;
10074;SDS011;5076;42.680;23.288;2022-08-19T07:25:41;8.20;;;6.20;;
10074;SDS011;5076;42.680;23.288;2022-08-19T07:28:08;9.93;;;6.00;;
10074;SDS011;5076;42.680;23.288;2022-08-19T07:30:36;10.63;;;5.93;;
10074;SDS011;5076;42.680;23.288;2022-08-19T07:33:02;7.30;;;5.87;;
10074;SDS011;5076;42.680;23.288;2022-08-19T07:35:29;9.20;;;6.10;;
10074;SDS011;5076;42.680;23.288;2022-08-19T07:37:57;8.83;;;6.20;;
10074;SDS011;5076;42.680;23.288;2022-08-19T07:40:29;6.13;;;5.53;;
10074;SDS011;5076;42.680;23.288;2022-08-19T07:42:55;9.17;;;5.93;;
10074;SDS011;5076;42.680;23.288;2022-08-19T07:45:22;7.57;;;5.23;;
10074;SDS011;5076;42.680;23.288;2022-08-19T07:47:49;8.37;;;5.50;;
10074;SDS011;5076;42.680;23.288;2022-08-19T07:50:15;7.27;;;6.03;;
10074;SDS011;5076;42.680;23.288;2022-08-19T07:52:43;5.70;;;5.13;;
10074;SDS011;5076;42.680;23.288;2022-08-19T07:55:09;10.13;;;5.93;;
10074;SDS011;5076;42.680;23.288;2022-08-19T07:57:38;9.93;;;7.90;;
10074;SDS011;5076;42.680;23.288;2022-08-19T08:00:05;9.10;;;6.55;;
10074;SDS011;5076;42.680;23.288;2022-08-19T08:02:32;11.23;;;6.07;;
10074;SDS011;5076;42.680;23.288;2022-08-19T08:04:58;9.32;;;5.40;;
10074;SDS011;5076;42.680;23.288;2022-08-19T08:07:42;6.82;;;5.05;;
10074;SDS011;5076;42.680;23.288;2022-08-19T08:10:26;7.88;;;5.63;;
10074;SDS011;5076;42.680;23.288;2022-08-19T08:12:54;7.78;;;5.30;;
10074;SDS011;5076;42.680;23.288;2022-08-19T08:15:21;6.90;;;5.45;;
10074;SDS011;5076;42.680;23.288;2022-08-19T08:17:48;9.55;;;6.40;;
10074;SDS011;5076;42.680;23.288;2022-08-19T08:20:14;7.50;;;5.40;;
10074;SDS011;5076;42.680;23.288;2022-08-19T08:22:42;9.38;;;5.15;;
10074;SDS011;5076;42.680;23.288;2022-08-19T08:25:27;7.53;;;5.22;;
10074;SDS011;5076;42.680;23.288;2022-08-19T08:27:56;8.10;;;4.70;;
10074;SDS011;5076;42.680;23.288;2022-08-19T08:30:25;9.38;;;5.43;;
10074;SDS011;5076;42.680;23.288;2022-08-19T08:32:52;6.68;;;4.97;;
10074;SDS011;5076;42.680;23.288;2022-08-19T08:35:20;5.57;;;4.68;;
10074;SDS011;5076;42.680;23.288;2022-08-19T08:37:47;8.57;;;5.22;;
10074;SDS011;5076;42.680;23.288;2022-08-19T08:40:17;6.85;;;4.40;;
10074;SDS011;5076;42.680;23.288;2022-08-19T08:42:48;7.32;;;4.45;;
10074;SDS011;5076;42.680;23.288;2022-08-19T08:45:17;5.90;;;4.20;;
10074;SDS011;5076;42.680;23.288;2022-08-19T08:47:44;4.28;;;3.80;;
10074;SDS011;5076;42.680;23.288;2022-08-19T08:50:13;3.65;;;3.35;;
10074;SDS011;5076;42.680;23.288;2022-08-19T08:52:41;4.68;;;3.60;;
10074;SDS011;5076;42.680;23.288;2022-08-19T08:55:10;6.63;;;3.72;;
10074;SDS011;5076;42.680;23.288;2022-08-19T08:57:39;3.40;;;3.10;;
10074;SDS011;5076;42.680;23.288;2022-08-19T09:00:10;4.35;;;3.20;;
10074;SDS011;5076;42.680;23.288;2022-08-19T09:02:39;8.70;;;3.45;;
10074;SDS011;5076;42.680;23.288;2022-08-19T09:05:06;6.07;;;3.60;;
10074;SDS011;5076;42.680;23.288;2022-08-19T09:07:38;6.05;;;3.55;;
10074;SDS011;5076;42.680;23.288;2022-08-19T09:10:10;5.50;;;3.92;;
10074;SDS011;5076;42.680;23.288;2022-08-19T09:12:45;3.97;;;3.65;;
10074;SDS011;5076;42.680;23.288;2022-08-19T09:15:15;4.53;;;3.92;;
10074;SDS011;5076;42.680;23.288;2022-08-19T09:17:45;3.92;;;3.50;;
10074;SDS011;5076;42.680;23.288;2022-08-19T09:20:14;4.68;;;3.28;;
10074;SDS011;5076;42.680;23.288;2022-08-19T09:22:42;7.43;;;3.35;;
10074;SDS011;5076;42.680;23.288;2022-08-19T09:25:10;3.20;;;2.90;;
10074;SDS011;5076;42.680;23.288;2022-08-19T09:27:38;4.15;;;3.10;;
10074;SDS011;5076;42.680;23.288;2022-08-19T09:30:05;4.63;;;2.70;;
10074;SDS011;5076;42.680;23.288;2022-08-19T09:32:32;4.70;;;2.63;;
10074;SDS011;5076;42.680;23.288;2022-08-19T09:35:00;3.58;;;2.97;;
10074;SDS011;5076;42.680;23.288;2022-08-19T09:37:27;4.78;;;2.40;;
10074;SDS011;5076;42.680;23.288;2022-08-19T09:39:54;3.90;;;2.83;;
10074;SDS011;5076;42.680;23.288;2022-08-19T09:42:20;3.92;;;3.53;;
10074;SDS011;5076;42.680;23.288;2022-08-19T09:44:47;13.57;;;12.30;;
10074;SDS011;5076;42.680;23.288;2022-08-19T09:47:14;3.53;;;3.15;;
10074;SDS011;5076;42.680;23.288;2022-08-19T09:49:40;4.30;;;3.85;;
10074;SDS011;5076;42.680;23.288;2022-08-19T09:52:09;5.28;;;4.78;;
10074;SDS011;5076;42.680;23.288;2022-08-19T09:54:36;2.83;;;2.53;;
10074;SDS011;5076;42.680;23.288;2022-08-19T09:57:03;5.30;;;4.55;;
10074;SDS011;5076;42.680;23.288;2022-08-19T09:59:29;3.42;;;2.90;;
10074;SDS011;5076;42.680;23.288;2022-08-19T10:01:56;3.13;;;2.40;;
10074;SDS011;5076;42.680;23.288;2022-08-19T10:04:23;3.78;;;2.85;;
10074;SDS011;5076;42.680;23.288;2022-08-19T10:07:11;5.30;;;2.83;;
10074;SDS011;5076;42.680;23.288;2022-08-19T10:09:37;6.20;;;2.90;;
10074;SDS011;5076;42.680;23.288;2022-08-19T10:12:06;2.72;;;2.53;;
10074;SDS011;5076;42.680;23.288;2022-08-19T10:14:33;3.65;;;2.92;;
10074;SDS011;5076;42.680;23.288;2022-08-19T10:17:00;3.78;;;2.70;;
10074;SDS011;5076;42.680;23.288;2022-08-19T10:19:27;6.18;;;4.93;;
10074;SDS011;5076;42.680;23.288;2022-08-19T10:22:02;4.18;;;2.90;;
10074;SDS011;5076;42.680;23.288;2022-08-19T10:24:30;3.55;;;2.92;;
10074;SDS011;5076;42.680;23.288;2022-08-19T10:26:57;3.08;;;2.50;;
10074;SDS011;5076;42.680;23.288;2022-08-19T10:29:23;3.28;;;2.70;;
10074;SDS011;5076;42.680;23.288;2022-08-19T10:31:50;3.90;;;2.83;;
10074;SDS011;5076;42.680;23.288;2022-08-19T10:34:22;4.13;;;3.15;;
10074;SDS011;5076;42.680;23.288;2022-08-19T10:36:49;5.05;;;2.90;;
10074;SDS011;5076;42.680;23.288;2022-08-19T10:39:16;3.35;;;2.75;;
10074;SDS011;5076;42.680;23.288;2022-08-19T10:41:44;4.07;;;3.60;;
10074;SDS011;5076;42.680;23.288;2022-08-19T10:44:11;4.13;;;3.03;;
10074;SDS011;5076;42.680;23.288;2022-08-19T10:46:39;5.72;;;3.42;;
10074;SDS011;5076;42.680;23.288;2022-08-19T10:49:07;3.58;;;3.15;;
10074;SDS011;5076;42.680;23.288;2022-08-19T10:51:34;4.20;;;2.80;;
10074;SDS011;5076;42.680;23.288;2022-08-19T10:54:24;4.22;;;3.10;;
10074;SDS011;5076;42.680;23.288;2022-08-19T10:57:12;4.90;;;4.45;;
10074;SDS011;5076;42.680;23.288;2022-08-19T10:59:38;4.07;;;3.67;;
10074;SDS011;5076;42.680;23.288;2022-08-19T11:02:05;3.40;;;3.10;;
10074;SDS011;5076;42.680;23.288;2022-08-19T11:04:34;3.58;;;3.13;;
10074;SDS011;5076;42.680;23.288;2022-08-19T11:07:01;4.38;;;3.17;;
10074;SDS011;5076;42.680;23.288;2022-08-19T11:09:28;3.15;;;2.85;;
10074;SDS011;5076;42.680;23.288;2022-08-19T11:11:55;3.17;;;2.78;;
10074;SDS011;5076;42.680;23.288;2022-08-19T11:14:23;3.72;;;3.45;;
10074;SDS011;5076;42.680;23.288;2022-08-19T11:16:50;5.50;;;3.67;;
10074;SDS011;5076;42.680;23.288;2022-08-19T11:19:21;3.60;;;3.30;;
10074;SDS011;5076;42.680;23.288;2022-08-19T11:21:49;4.47;;;3.10;;
10074;SDS011;5076;42.680;23.288;2022-08-19T11:24:16;3.92;;;3.40;;
10074;SDS011;5076;42.680;23.288;2022-08-19T11:26:44;6.93;;;3.65;;
10074;SDS011;5076;42.680;23.288;2022-08-19T11:29:11;4.45;;;3.42;;
10074;SDS011;5076;42.680;23.288;2022-08-19T11:31:40;4.78;;;3.30;;
10074;SDS011;5076;42.680;23.288;2022-08-19T11:34:08;4.63;;;3.45;;
10074;SDS011;5076;42.680;23.288;2022-08-19T11:36:36;3.50;;;3.17;;
10074;SDS011;5076;42.680;23.288;2022-08-19T11:39:03;5.60;;;4.10;;
10074;SDS011;5076;42.680;23.288;2022-08-19T11:41:30;4.70;;;3.33;;
10074;SDS011;5076;42.680;23.288;2022-08-19T11:43:57;3.70;;;3.30;;
10074;SDS011;5076;42.680;23.288;2022-08-19T11:46:24;5.82;;;3.58;;
10074;SDS011;5076;42.680;23.288;2022-08-19T11:48:53;4.32;;;3.42;;
10074;SDS011;5076;42.680;23.288;2022-08-19T11:51:21;5.35;;;3.45;;
10074;SDS011;5076;42.680;23.288;2022-08-19T11:53:50;5.28;;;3.63;;
10074;SDS011;5076;42.680;23.288;2022-08-19T11:56:17;4.63;;;3.30;;
10074;SDS011;5076;42.680;23.288;2022-08-19T11:58:44;6.35;;;3.90;;
10074;SDS011;5076;42.680;23.288;2022-08-19T12:01:11;6.75;;;3.47;;
10074;SDS011;5076;42.680;23.288;2022-08-19T12:03:38;5.18;;;3.15;;
10074;SDS011;5076;42.680;23.288;2022-08-19T12:06:08;3.83;;;3.17;;
10074;SDS011;5076;42.680;23.288;2022-08-19T12:08:35;3.40;;;3.10;;
10074;SDS011;5076;42.680;23.288;2022-08-19T12:11:02;4.25;;;3.25;;
10074;SDS011;5076;42.680;23.288;2022-08-19T12:13:29;3.08;;;2.78;;
10074;SDS011;5076;42.680;23.288;2022-08-19T12:15:56;6.13;;;3.25;;
10074;SDS011;5076;42.680;23.288;2022-08-19T12:18:23;3.17;;;2.95;;
10074;SDS011;5076;42.680;23.288;2022-08-19T12:20:50;3.50;;;3.00;;
10074;SDS011;5076;42.680;23.288;2022-08-19T12:23:18;6.38;;;2.95;;
10074;SDS011;5076;42.680;23.288;2022-08-19T12:25:45;3.85;;;3.38;;
10074;SDS011;5076;42.680;23.288;2022-08-19T12:28:15;3.75;;;3.40;;
10074;SDS011;5076;42.680;23.288;2022-08-19T12:30:41;3.70;;;2.83;;
10074;SDS011;5076;42.680;23.288;2022-08-19T12:33:08;3.13;;;2.78;;
10074;SDS011;5076;42.680;23.288;2022-08-19T12:35:34;5.35;;;3.03;;
10074;SDS011;5076;42.680;23.288;2022-08-19T12:38:01;3.10;;;2.80;;
10074;SDS011;5076;42.680;23.288;2022-08-19T12:40:29;4.90;;;3.13;;
10074;SDS011;5076;42.680;23.288;2022-08-19T12:42:55;4.13;;;2.92;;
10074;SDS011;5076;42.680;23.288;2022-08-19T12:45:22;3.15;;;2.85;;
10074;SDS011;5076;42.680;23.288;2022-08-19T12:47:49;4.32;;;3.42;;
10074;SDS011;5076;42.680;23.288;2022-08-19T12:50:17;4.20;;;2.60;;
10074;SDS011;5076;42.680;23.288;2022-08-19T12:52:46;6.30;;;2.95;;
10074;SDS011;5076;42.680;23.288;2022-08-19T12:55:13;4.65;;;2.90;;
10074;SDS011;5076;42.680;23.288;2022-08-19T12:57:41;3.83;;;3.00;;
10074;SDS011;5076;42.680;23.288;2022-08-19T13:00:09;4.60;;;2.80;;
10074;SDS011;5076;42.680;23.288;2022-08-19T13:02:37;4.70;;;3.50;;
10074;SDS011;5076;42.680;23.288;2022-08-19T13:05:04;3.10;;;2.80;;
10074;SDS011;5076;42.680;23.288;2022-08-19T13:07:31;6.85;;;3.47;;
10074;SDS011;5076;42.680;23.288;2022-08-19T13:09:58;5.38;;;3.00;;
10074;SDS011;5076;42.680;23.288;2022-08-19T13:12:25;3.50;;;3.20;;
10074;SDS011;5076;42.680;23.288;2022-08-19T13:14:53;3.53;;;3.22;;
10074;SDS011;5076;42.680;23.288;2022-08-19T13:17:20;4.07;;;3.25;;
10074;SDS011;5076;42.680;23.288;2022-08-19T13:19:47;3.38;;;3.08;;
10074;SDS011;5076;42.680;23.288;2022-08-19T13:22:13;4.10;;;2.83;;
10074;SDS011;5076;42.680;23.288;2022-08-19T13:24:40;5.32;;;3.30;;
10074;SDS011;5076;42.680;23.288;2022-08-19T13:27:08;4.60;;;2.85;;
10074;SDS011;5076;42.680;23.288;2022-08-19T13:29:34;3.78;;;3.35;;
10074;SDS011;5076;42.680;23.288;2022-08-19T13:32:20;3.15;;;2.85;;
10074;SDS011;5076;42.680;23.288;2022-08-19T13:35:04;4.80;;;3.25;;
10074;SDS011;5076;42.680;23.288;2022-08-19T13:37:31;6.03;;;3.10;;
10074;SDS011;5076;42.680;23.288;2022-08-19T13:40:11;3.80;;;3.00;;
10074;SDS011;5076;42.680;23.288;2022-08-19T13:42:40;5.28;;;3.33;;
10074;SDS011;5076;42.680;23.288;2022-08-19T13:45:07;7.70;;;4.03;;
10074;SDS011;5076;42.680;23.288;2022-08-19T13:47:36;3.63;;;2.55;;
10074;SDS011;5076;42.680;23.288;2022-08-19T13:50:09;6.18;;;3.70;;
10074;SDS011;5076;42.680;23.288;2022-08-19T13:52:36;6.13;;;3.42;;
10074;SDS011;5076;42.680;23.288;2022-08-19T13:55:03;6.63;;;3.22;;
10074;SDS011;5076;42.680;23.288;2022-08-19T13:57:30;5.18;;;3.40;;
10074;SDS011;5076;42.680;23.288;2022-08-19T13:59:57;3.67;;;3.35;;
10074;SDS011;5076;42.680;23.288;2022-08-19T14:02:27;9.30;;;3.80;;
10074;SDS011;5076;42.680;23.288;2022-08-19T14:04:55;11.80;;;4.25;;
10074;SDS011;5076;42.680;23.288;2022-08-19T14:07:22;5.03;;;3.38;;
10074;SDS011;5076;42.680;23.288;2022-08-19T14:09:49;4.47;;;3.53;;
10074;SDS011;5076;42.680;23.288;2022-08-19T14:12:18;5.88;;;3.33;;
10074;SDS011;5076;42.680;23.288;2022-08-19T14:14:44;5.32;;;3.85;;
10074;SDS011;5076;42.680;23.288;2022-08-19T14:17:11;9.40;;;3.95;;
10074;SDS011;5076;42.680;23.288;2022-08-19T14:19:38;3.72;;;3.38;;
10074;SDS011;5076;42.680;23.288;2022-08-19T14:22:06;4.18;;;3.35;;
10074;SDS011;5076;42.680;23.288;2022-08-19T14:24:32;5.93;;;3.28;;
10074;SDS011;5076;42.680;23.288;2022-08-19T14:26:59;5.20;;;3.20;;
10074;SDS011;5076;42.680;23.288;2022-08-19T14:29:26;7.45;;;3.75;;
10074;SDS011;5076;42.680;23.288;2022-08-19T14:31:54;6.57;;;3.38;;
10074;SDS011;5076;42.680;23.288;2022-08-19T14:34:21;6.20;;;3.28;;
10074;SDS011;5076;42.680;23.288;2022-08-19T14:36:48;8.45;;;3.38;;
10074;SDS011;5076;42.680;23.288;2022-08-19T14:39:16;4.90;;;3.50;;
10074;SDS011;5076;42.680;23.288;2022-08-19T14:41:43;4.35;;;3.60;;
10074;SDS011;5076;42.680;23.288;2022-08-19T14:44:10;7.18;;;3.55;;
10074;SDS011;5076;42.680;23.288;2022-08-19T14:46:37;5.05;;;3.28;;
10074;SDS011;5076;42.680;23.288;2022-08-19T14:49:05;5.30;;;3.03;;
10074;SDS011;5076;42.680;23.288;2022-08-19T14:51:32;4.85;;;3.50;;